sensor_id;sensor_type;location;lat;lon;timestamp;P1;durP1;ratioP1;P2;durP2;ratioP2
25511;SDS011;13414;44.534;18.700;2022-08-18T00:02:02;11.70;;;8.90;;
25511;SDS011;13414;44.534;18.700;2022-08-18T00:04:32;11.30;;;9.20;;
25511;SDS011;13414;44.534;18.700;2022-08-18T00:07:03;11.93;;;8.45;;
25511;SDS011;13414;44.534;18.700;2022-08-18T00:09:32;12.90;;;9.00;;
25511;SDS011;13414;44.534;18.700;2022-08-18T00:12:00;16.83;;;8.75;;
25511;SDS011;13414;44.534;18.700;2022-08-18T00:14:31;11.77;;;8.48;;
25511;SDS011;13414;44.534;18.700;2022-08-18T00:16:59;10.10;;;8.38;;
25511;SDS011;13414;44.534;18.700;2022-08-18T00:19:26;12.18;;;8.23;;
25511;SDS011;13414;44.534;18.700;2022-08-18T00:21:54;10.30;;;9.25;;
25511;SDS011;13414;44.534;18.700;2022-08-18T00:24:21;11.50;;;9.40;;
25511;SDS011;13414;44.534;18.700;2022-08-18T00:26:48;14.02;;;9.95;;
25511;SDS011;13414;44.534;18.700;2022-08-18T00:29:15;14.73;;;9.18;;
25511;SDS011;13414;44.534;18.700;2022-08-18T00:31:44;12.68;;;9.65;;
25511;SDS011;13414;44.534;18.700;2022-08-18T00:34:11;13.30;;;9.98;;
25511;SDS011;13414;44.534;18.700;2022-08-18T00:36:39;14.43;;;9.30;;
25511;SDS011;13414;44.534;18.700;2022-08-18T00:39:06;13.50;;;9.55;;
25511;SDS011;13414;44.534;18.700;2022-08-18T00:41:33;13.70;;;9.55;;
25511;SDS011;13414;44.534;18.700;2022-08-18T00:44:01;12.00;;;9.02;;
25511;SDS011;13414;44.534;18.700;2022-08-18T00:46:30;12.65;;;9.25;;
25511;SDS011;13414;44.534;18.700;2022-08-18T00:49:00;11.02;;;9.30;;
25511;SDS011;13414;44.534;18.700;2022-08-18T00:51:29;13.45;;;9.60;;
25511;SDS011;13414;44.534;18.700;2022-08-18T00:54:04;13.82;;;9.50;;
25511;SDS011;13414;44.534;18.700;2022-08-18T00:56:37;10.57;;;9.48;;
25511;SDS011;13414;44.534;18.700;2022-08-18T00:59:10;13.15;;;9.57;;
25511;SDS011;13414;44.534;18.700;2022-08-18T01:01:41;12.43;;;9.68;;
25511;SDS011;13414;44.534;18.700;2022-08-18T01:04:13;12.85;;;9.32;;
25511;SDS011;13414;44.534;18.700;2022-08-18T01:06:43;11.45;;;9.68;;
25511;SDS011;13414;44.534;18.700;2022-08-18T01:09:13;12.15;;;8.98;;
25511;SDS011;13414;44.534;18.700;2022-08-18T01:11:42;10.48;;;8.93;;
25511;SDS011;13414;44.534;18.700;2022-08-18T01:14:11;15.02;;;9.85;;
25511;SDS011;13414;44.534;18.700;2022-08-18T01:16:42;12.95;;;9.27;;
25511;SDS011;13414;44.534;18.700;2022-08-18T01:19:29;12.75;;;9.13;;
25511;SDS011;13414;44.534;18.700;2022-08-18T01:22:16;13.13;;;9.90;;
25511;SDS011;13414;44.534;18.700;2022-08-18T01:27:37;12.27;;;9.57;;
25511;SDS011;13414;44.534;18.700;2022-08-18T01:30:08;10.27;;;9.02;;
25511;SDS011;13414;44.534;18.700;2022-08-18T01:32:38;12.88;;;8.95;;
25511;SDS011;13414;44.534;18.700;2022-08-18T01:35:07;12.25;;;9.07;;
25511;SDS011;13414;44.534;18.700;2022-08-18T01:37:36;11.68;;;8.60;;
25511;SDS011;13414;44.534;18.700;2022-08-18T01:40:07;15.35;;;8.98;;
25511;SDS011;13414;44.534;18.700;2022-08-18T01:42:36;12.63;;;9.05;;
25511;SDS011;13414;44.534;18.700;2022-08-18T01:45:08;13.35;;;9.57;;
25511;SDS011;13414;44.534;18.700;2022-08-18T01:47:36;11.50;;;9.32;;
25511;SDS011;13414;44.534;18.700;2022-08-18T01:50:05;20.17;;;15.73;;
25511;SDS011;13414;44.534;18.700;2022-08-18T01:52:34;11.45;;;9.25;;
25511;SDS011;13414;44.534;18.700;2022-08-18T01:55:02;12.73;;;9.27;;
25511;SDS011;13414;44.534;18.700;2022-08-18T01:57:34;13.77;;;9.20;;
25511;SDS011;13414;44.534;18.700;2022-08-18T02:00:08;26.92;;;20.52;;
25511;SDS011;13414;44.534;18.700;2022-08-18T02:02:37;14.98;;;12.65;;
25511;SDS011;13414;44.534;18.700;2022-08-18T02:05:07;13.32;;;10.48;;
25511;SDS011;13414;44.534;18.700;2022-08-18T02:07:37;11.23;;;9.27;;
25511;SDS011;13414;44.534;18.700;2022-08-18T02:10:05;11.27;;;9.35;;
25511;SDS011;13414;44.534;18.700;2022-08-18T02:12:36;14.07;;;9.70;;
25511;SDS011;13414;44.534;18.700;2022-08-18T02:15:04;11.52;;;9.25;;
25511;SDS011;13414;44.534;18.700;2022-08-18T02:17:35;11.63;;;9.70;;
25511;SDS011;13414;44.534;18.700;2022-08-18T02:20:04;12.80;;;9.23;;
25511;SDS011;13414;44.534;18.700;2022-08-18T02:22:32;13.32;;;10.55;;
25511;SDS011;13414;44.534;18.700;2022-08-18T02:25:00;15.15;;;9.70;;
25511;SDS011;13414;44.534;18.700;2022-08-18T02:27:27;12.82;;;10.55;;
25511;SDS011;13414;44.534;18.700;2022-08-18T02:29:57;12.77;;;10.35;;
25511;SDS011;13414;44.534;18.700;2022-08-18T02:32:26;13.30;;;9.77;;
25511;SDS011;13414;44.534;18.700;2022-08-18T02:34:53;13.82;;;10.60;;
25511;SDS011;13414;44.534;18.700;2022-08-18T02:37:21;16.40;;;10.18;;
25511;SDS011;13414;44.534;18.700;2022-08-18T02:39:48;14.18;;;9.27;;
25511;SDS011;13414;44.534;18.700;2022-08-18T02:42:16;12.35;;;9.80;;
25511;SDS011;13414;44.534;18.700;2022-08-18T02:44:43;12.55;;;9.60;;
25511;SDS011;13414;44.534;18.700;2022-08-18T02:47:12;12.90;;;9.73;;
25511;SDS011;13414;44.534;18.700;2022-08-18T02:49:39;10.95;;;9.07;;
25511;SDS011;13414;44.534;18.700;2022-08-18T02:52:07;12.70;;;9.52;;
25511;SDS011;13414;44.534;18.700;2022-08-18T02:54:35;12.57;;;9.50;;
25511;SDS011;13414;44.534;18.700;2022-08-18T02:57:05;12.30;;;9.70;;
25511;SDS011;13414;44.534;18.700;2022-08-18T02:59:35;13.07;;;9.65;;
25511;SDS011;13414;44.534;18.700;2022-08-18T03:02:04;13.35;;;10.40;;
25511;SDS011;13414;44.534;18.700;2022-08-18T03:04:34;14.27;;;10.02;;
25511;SDS011;13414;44.534;18.700;2022-08-18T03:07:03;11.65;;;9.43;;
25511;SDS011;13414;44.534;18.700;2022-08-18T03:09:31;14.27;;;9.75;;
25511;SDS011;13414;44.534;18.700;2022-08-18T03:12:00;12.25;;;9.93;;
25511;SDS011;13414;44.534;18.700;2022-08-18T03:14:28;12.77;;;9.73;;
25511;SDS011;13414;44.534;18.700;2022-08-18T03:16:55;11.35;;;9.38;;
25511;SDS011;13414;44.534;18.700;2022-08-18T03:19:23;13.60;;;9.52;;
25511;SDS011;13414;44.534;18.700;2022-08-18T03:21:54;13.38;;;10.43;;
25511;SDS011;13414;44.534;18.700;2022-08-18T03:24:23;15.43;;;10.77;;
25511;SDS011;13414;44.534;18.700;2022-08-18T03:26:52;15.18;;;10.50;;
25511;SDS011;13414;44.534;18.700;2022-08-18T03:29:21;13.63;;;10.35;;
25511;SDS011;13414;44.534;18.700;2022-08-18T03:31:49;10.45;;;9.10;;
25511;SDS011;13414;44.534;18.700;2022-08-18T03:34:17;11.35;;;9.80;;
25511;SDS011;13414;44.534;18.700;2022-08-18T03:36:45;16.13;;;9.82;;
25511;SDS011;13414;44.534;18.700;2022-08-18T03:39:15;12.95;;;8.85;;
25511;SDS011;13414;44.534;18.700;2022-08-18T03:41:43;10.73;;;8.90;;
25511;SDS011;13414;44.534;18.700;2022-08-18T03:44:11;13.63;;;9.63;;
25511;SDS011;13414;44.534;18.700;2022-08-18T03:46:40;12.38;;;9.10;;
25511;SDS011;13414;44.534;18.700;2022-08-18T03:49:10;12.75;;;9.98;;
25511;SDS011;13414;44.534;18.700;2022-08-18T03:51:37;13.13;;;10.10;;
25511;SDS011;13414;44.534;18.700;2022-08-18T03:54:08;13.73;;;10.43;;
25511;SDS011;13414;44.534;18.700;2022-08-18T03:56:39;11.90;;;9.80;;
25511;SDS011;13414;44.534;18.700;2022-08-18T03:59:10;15.20;;;9.70;;
25511;SDS011;13414;44.534;18.700;2022-08-18T04:01:41;11.60;;;9.85;;
25511;SDS011;13414;44.534;18.700;2022-08-18T04:04:10;11.55;;;9.43;;
25511;SDS011;13414;44.534;18.700;2022-08-18T04:06:39;11.35;;;9.65;;
25511;SDS011;13414;44.534;18.700;2022-08-18T04:09:09;12.65;;;10.05;;
25511;SDS011;13414;44.534;18.700;2022-08-18T04:11:39;15.55;;;10.00;;
25511;SDS011;13414;44.534;18.700;2022-08-18T04:14:08;12.27;;;9.50;;
25511;SDS011;13414;44.534;18.700;2022-08-18T04:16:36;14.88;;;10.43;;
25511;SDS011;13414;44.534;18.700;2022-08-18T04:19:04;11.43;;;9.82;;
25511;SDS011;13414;44.534;18.700;2022-08-18T04:21:33;16.25;;;9.93;;
25511;SDS011;13414;44.534;18.700;2022-08-18T04:24:02;16.10;;;10.45;;
25511;SDS011;13414;44.534;18.700;2022-08-18T04:26:32;18.92;;;10.50;;
25511;SDS011;13414;44.534;18.700;2022-08-18T04:29:03;11.98;;;9.75;;
25511;SDS011;13414;44.534;18.700;2022-08-18T04:31:30;10.63;;;9.05;;
25511;SDS011;13414;44.534;18.700;2022-08-18T04:33:58;16.17;;;9.48;;
25511;SDS011;13414;44.534;18.700;2022-08-18T04:36:28;11.75;;;9.77;;
25511;SDS011;13414;44.534;18.700;2022-08-18T04:38:56;15.15;;;10.43;;
25511;SDS011;13414;44.534;18.700;2022-08-18T04:41:24;13.82;;;9.40;;
25511;SDS011;13414;44.534;18.700;2022-08-18T04:43:52;15.68;;;9.63;;
25511;SDS011;13414;44.534;18.700;2022-08-18T04:46:21;14.93;;;10.00;;
25511;SDS011;13414;44.534;18.700;2022-08-18T04:48:49;16.25;;;11.93;;
25511;SDS011;13414;44.534;18.700;2022-08-18T04:51:17;13.45;;;9.75;;
25511;SDS011;13414;44.534;18.700;2022-08-18T04:53:46;12.77;;;9.63;;
25511;SDS011;13414;44.534;18.700;2022-08-18T04:56:13;24.48;;;17.73;;
25511;SDS011;13414;44.534;18.700;2022-08-18T04:58:45;24.65;;;16.80;;
25511;SDS011;13414;44.534;18.700;2022-08-18T05:01:15;13.82;;;9.73;;
25511;SDS011;13414;44.534;18.700;2022-08-18T05:03:48;18.73;;;11.10;;
25511;SDS011;13414;44.534;18.700;2022-08-18T05:06:16;13.57;;;9.80;;
25511;SDS011;13414;44.534;18.700;2022-08-18T05:08:44;16.17;;;10.25;;
25511;SDS011;13414;44.534;18.700;2022-08-18T05:11:12;19.55;;;10.52;;
25511;SDS011;13414;44.534;18.700;2022-08-18T05:13:40;13.70;;;10.52;;
25511;SDS011;13414;44.534;18.700;2022-08-18T05:16:08;21.40;;;10.98;;
25511;SDS011;13414;44.534;18.700;2022-08-18T05:18:35;15.88;;;9.50;;
25511;SDS011;13414;44.534;18.700;2022-08-18T05:21:06;15.65;;;9.07;;
25511;SDS011;13414;44.534;18.700;2022-08-18T05:23:38;14.32;;;9.85;;
25511;SDS011;13414;44.534;18.700;2022-08-18T05:26:06;16.70;;;10.23;;
25511;SDS011;13414;44.534;18.700;2022-08-18T05:28:34;18.08;;;11.90;;
25511;SDS011;13414;44.534;18.700;2022-08-18T05:31:05;22.85;;;14.40;;
25511;SDS011;13414;44.534;18.700;2022-08-18T05:33:34;20.55;;;13.32;;
25511;SDS011;13414;44.534;18.700;2022-08-18T05:36:04;15.27;;;10.30;;
25511;SDS011;13414;44.534;18.700;2022-08-18T05:38:38;22.10;;;12.43;;
25511;SDS011;13414;44.534;18.700;2022-08-18T05:41:18;14.48;;;10.10;;
25511;SDS011;13414;44.534;18.700;2022-08-18T05:43:50;15.30;;;10.85;;
25511;SDS011;13414;44.534;18.700;2022-08-18T05:46:17;15.00;;;9.43;;
25511;SDS011;13414;44.534;18.700;2022-08-18T05:48:47;48.67;;;15.05;;
25511;SDS011;13414;44.534;18.700;2022-08-18T05:51:26;16.73;;;11.13;;
25511;SDS011;13414;44.534;18.700;2022-08-18T05:54:00;25.08;;;12.27;;
25511;SDS011;13414;44.534;18.700;2022-08-18T05:56:45;17.85;;;11.25;;
25511;SDS011;13414;44.534;18.700;2022-08-18T05:59:17;12.60;;;9.95;;
25511;SDS011;13414;44.534;18.700;2022-08-18T06:01:49;19.00;;;10.38;;
25511;SDS011;13414;44.534;18.700;2022-08-18T06:04:25;16.60;;;11.10;;
25511;SDS011;13414;44.534;18.700;2022-08-18T06:07:07;13.90;;;9.75;;
25511;SDS011;13414;44.534;18.700;2022-08-18T06:09:39;15.38;;;9.15;;
25511;SDS011;13414;44.534;18.700;2022-08-18T06:12:12;38.42;;;12.93;;
25511;SDS011;13414;44.534;18.700;2022-08-18T06:14:46;27.63;;;11.77;;
25511;SDS011;13414;44.534;18.700;2022-08-18T06:17:18;16.48;;;10.25;;
25511;SDS011;13414;44.534;18.700;2022-08-18T06:20:14;16.60;;;9.70;;
25511;SDS011;13414;44.534;18.700;2022-08-18T06:22:51;15.20;;;10.32;;
25511;SDS011;13414;44.534;18.700;2022-08-18T06:25:24;14.30;;;9.38;;
25511;SDS011;13414;44.534;18.700;2022-08-18T06:28:00;15.13;;;9.48;;
25511;SDS011;13414;44.534;18.700;2022-08-18T06:30:43;18.65;;;9.77;;
25511;SDS011;13414;44.534;18.700;2022-08-18T06:33:19;15.48;;;10.40;;
25511;SDS011;13414;44.534;18.700;2022-08-18T06:36:06;14.60;;;9.63;;
25511;SDS011;13414;44.534;18.700;2022-08-18T06:38:44;15.85;;;10.27;;
25511;SDS011;13414;44.534;18.700;2022-08-18T06:41:22;17.20;;;10.52;;
25511;SDS011;13414;44.534;18.700;2022-08-18T06:44:01;14.07;;;11.55;;
25511;SDS011;13414;44.534;18.700;2022-08-18T06:46:31;15.32;;;11.40;;
25511;SDS011;13414;44.534;18.700;2022-08-18T06:49:07;13.05;;;9.73;;
25511;SDS011;13414;44.534;18.700;2022-08-18T06:51:36;14.95;;;8.88;;
25511;SDS011;13414;44.534;18.700;2022-08-18T06:54:06;11.07;;;8.50;;
25511;SDS011;13414;44.534;18.700;2022-08-18T06:56:51;12.60;;;9.10;;
25511;SDS011;13414;44.534;18.700;2022-08-18T06:59:22;13.98;;;8.90;;
25511;SDS011;13414;44.534;18.700;2022-08-18T07:01:52;13.63;;;8.70;;
25511;SDS011;13414;44.534;18.700;2022-08-18T07:04:29;14.50;;;8.98;;
25511;SDS011;13414;44.534;18.700;2022-08-18T07:06:58;14.85;;;8.15;;
25511;SDS011;13414;44.534;18.700;2022-08-18T07:09:38;12.20;;;8.63;;
25511;SDS011;13414;44.534;18.700;2022-08-18T07:12:06;9.85;;;7.75;;
25511;SDS011;13414;44.534;18.700;2022-08-18T07:14:42;13.00;;;8.40;;
25511;SDS011;13414;44.534;18.700;2022-08-18T07:17:13;11.43;;;8.20;;
25511;SDS011;13414;44.534;18.700;2022-08-18T07:19:53;13.18;;;8.45;;
25511;SDS011;13414;44.534;18.700;2022-08-18T07:22:40;13.43;;;7.93;;
25511;SDS011;13414;44.534;18.700;2022-08-18T07:25:20;10.45;;;7.90;;
25511;SDS011;13414;44.534;18.700;2022-08-18T07:27:50;12.98;;;9.02;;
25511;SDS011;13414;44.534;18.700;2022-08-18T07:30:31;10.82;;;7.55;;
25511;SDS011;13414;44.534;18.700;2022-08-18T07:33:04;11.60;;;10.25;;
25511;SDS011;13414;44.534;18.700;2022-08-18T07:35:38;15.23;;;11.68;;
25511;SDS011;13414;44.534;18.700;2022-08-18T07:38:16;16.70;;;9.27;;
25511;SDS011;13414;44.534;18.700;2022-08-18T07:40:52;12.40;;;7.97;;
25511;SDS011;13414;44.534;18.700;2022-08-18T07:43:23;13.07;;;8.00;;
25511;SDS011;13414;44.534;18.700;2022-08-18T07:45:54;13.38;;;7.78;;
25511;SDS011;13414;44.534;18.700;2022-08-18T07:48:30;10.60;;;8.02;;
25511;SDS011;13414;44.534;18.700;2022-08-18T07:51:00;18.13;;;8.55;;
25511;SDS011;13414;44.534;18.700;2022-08-18T07:53:42;10.50;;;8.45;;
25511;SDS011;13414;44.534;18.700;2022-08-18T07:56:19;13.35;;;8.20;;
25511;SDS011;13414;44.534;18.700;2022-08-18T07:58:51;9.75;;;8.02;;
25511;SDS011;13414;44.534;18.700;2022-08-18T08:01:26;13.65;;;7.95;;
25511;SDS011;13414;44.534;18.700;2022-08-18T08:04:02;12.32;;;9.05;;
25511;SDS011;13414;44.534;18.700;2022-08-18T08:06:38;9.77;;;7.68;;
25511;SDS011;13414;44.534;18.700;2022-08-18T08:09:11;11.65;;;8.75;;
25511;SDS011;13414;44.534;18.700;2022-08-18T08:11:49;14.38;;;11.05;;
25511;SDS011;13414;44.534;18.700;2022-08-18T08:14:30;12.13;;;9.98;;
25511;SDS011;13414;44.534;18.700;2022-08-18T08:17:06;14.30;;;9.10;;
25511;SDS011;13414;44.534;18.700;2022-08-18T08:22:38;9.95;;;8.25;;
25511;SDS011;13414;44.534;18.700;2022-08-18T08:25:16;11.05;;;7.38;;
25511;SDS011;13414;44.534;18.700;2022-08-18T08:27:54;11.25;;;7.78;;
25511;SDS011;13414;44.534;18.700;2022-08-18T08:30:32;12.35;;;9.25;;
25511;SDS011;13414;44.534;18.700;2022-08-18T08:33:04;11.38;;;9.23;;
25511;SDS011;13414;44.534;18.700;2022-08-18T08:35:37;16.02;;;11.30;;
25511;SDS011;13414;44.534;18.700;2022-08-18T08:38:13;11.57;;;8.63;;
25511;SDS011;13414;44.534;18.700;2022-08-18T08:40:45;11.80;;;8.32;;
25511;SDS011;13414;44.534;18.700;2022-08-18T08:43:22;13.90;;;9.93;;
25511;SDS011;13414;44.534;18.700;2022-08-18T08:45:59;13.75;;;9.50;;
25511;SDS011;13414;44.534;18.700;2022-08-18T08:48:35;10.50;;;7.53;;
25511;SDS011;13414;44.534;18.700;2022-08-18T08:51:10;11.32;;;7.53;;
25511;SDS011;13414;44.534;18.700;2022-08-18T08:53:53;11.57;;;7.85;;
25511;SDS011;13414;44.534;18.700;2022-08-18T08:56:25;10.38;;;8.07;;
25511;SDS011;13414;44.534;18.700;2022-08-18T08:58:57;10.90;;;8.00;;
25511;SDS011;13414;44.534;18.700;2022-08-18T09:01:31;16.10;;;9.07;;
25511;SDS011;13414;44.534;18.700;2022-08-18T09:04:17;13.73;;;8.18;;
25511;SDS011;13414;44.534;18.700;2022-08-18T09:06:59;9.57;;;7.40;;
25511;SDS011;13414;44.534;18.700;2022-08-18T09:09:47;11.43;;;7.85;;
25511;SDS011;13414;44.534;18.700;2022-08-18T09:12:42;11.67;;;7.10;;
25511;SDS011;13414;44.534;18.700;2022-08-18T09:18:28;11.48;;;8.18;;
25511;SDS011;13414;44.534;18.700;2022-08-18T09:21:17;9.88;;;8.32;;
25511;SDS011;13414;44.534;18.700;2022-08-18T09:24:08;11.80;;;7.28;;
25511;SDS011;13414;44.534;18.700;2022-08-18T09:26:45;10.45;;;7.43;;
25511;SDS011;13414;44.534;18.700;2022-08-18T09:29:17;13.00;;;7.65;;
25511;SDS011;13414;44.534;18.700;2022-08-18T09:32:08;10.02;;;8.10;;
25511;SDS011;13414;44.534;18.700;2022-08-18T09:34:58;10.57;;;8.18;;
25511;SDS011;13414;44.534;18.700;2022-08-18T09:37:38;13.85;;;9.00;;
25511;SDS011;13414;44.534;18.700;2022-08-18T09:40:32;16.50;;;9.40;;
25511;SDS011;13414;44.534;18.700;2022-08-18T09:45:56;11.82;;;8.43;;
25511;SDS011;13414;44.534;18.700;2022-08-18T09:48:29;13.07;;;9.07;;
25511;SDS011;13414;44.534;18.700;2022-08-18T09:54:06;13.73;;;8.27;;
25511;SDS011;13414;44.534;18.700;2022-08-18T10:05:42;11.25;;;9.02;;
25511;SDS011;13414;44.534;18.700;2022-08-18T10:08:41;16.30;;;8.68;;
25511;SDS011;13414;44.534;18.700;2022-08-18T10:11:40;13.95;;;9.85;;
25511;SDS011;13414;44.534;18.700;2022-08-18T10:14:24;11.70;;;8.25;;
25511;SDS011;13414;44.534;18.700;2022-08-18T10:19:36;11.13;;;6.47;;
25511;SDS011;13414;44.534;18.700;2022-08-18T10:22:28;18.55;;;11.73;;
25511;SDS011;13414;44.534;18.700;2022-08-18T10:25:02;13.35;;;8.20;;
25511;SDS011;13414;44.534;18.700;2022-08-18T10:27:34;12.00;;;7.93;;
25511;SDS011;13414;44.534;18.700;2022-08-18T10:33:54;10.80;;;5.82;;
25511;SDS011;13414;44.534;18.700;2022-08-18T10:39:23;12.55;;;7.03;;
25511;SDS011;13414;44.534;18.700;2022-08-18T10:42:09;13.15;;;8.27;;
25511;SDS011;13414;44.534;18.700;2022-08-18T10:44:41;11.05;;;6.65;;
25511;SDS011;13414;44.534;18.700;2022-08-18T10:47:18;9.27;;;6.53;;
25511;SDS011;13414;44.534;18.700;2022-08-18T10:49:48;11.25;;;6.15;;
25511;SDS011;13414;44.534;18.700;2022-08-18T10:52:36;11.75;;;7.95;;
25511;SDS011;13414;44.534;18.700;2022-08-18T10:55:21;10.77;;;7.25;;
25511;SDS011;13414;44.534;18.700;2022-08-18T10:58:09;11.68;;;5.82;;
25511;SDS011;13414;44.534;18.700;2022-08-18T11:00:45;11.02;;;7.25;;
25511;SDS011;13414;44.534;18.700;2022-08-18T11:03:24;8.98;;;5.68;;
25511;SDS011;13414;44.534;18.700;2022-08-18T11:06:02;9.50;;;6.72;;
25511;SDS011;13414;44.534;18.700;2022-08-18T11:08:31;12.80;;;8.75;;
25511;SDS011;13414;44.534;18.700;2022-08-18T11:11:12;13.63;;;9.73;;
25511;SDS011;13414;44.534;18.700;2022-08-18T11:13:49;9.68;;;6.28;;
25511;SDS011;13414;44.534;18.700;2022-08-18T11:16:30;8.60;;;5.82;;
25511;SDS011;13414;44.534;18.700;2022-08-18T11:19:05;9.70;;;6.38;;
25511;SDS011;13414;44.534;18.700;2022-08-18T11:21:37;8.38;;;4.90;;
25511;SDS011;13414;44.534;18.700;2022-08-18T11:24:08;8.18;;;5.10;;
25511;SDS011;13414;44.534;18.700;2022-08-18T11:26:40;10.15;;;5.55;;
25511;SDS011;13414;44.534;18.700;2022-08-18T11:29:16;17.52;;;11.10;;
25511;SDS011;13414;44.534;18.700;2022-08-18T11:31:45;8.20;;;6.35;;
25511;SDS011;13414;44.534;18.700;2022-08-18T11:34:14;19.38;;;14.02;;
25511;SDS011;13414;44.534;18.700;2022-08-18T11:36:53;12.27;;;7.57;;
25511;SDS011;13414;44.534;18.700;2022-08-18T11:39:22;10.27;;;6.13;;
25511;SDS011;13414;44.534;18.700;2022-08-18T11:41:51;15.55;;;8.15;;
25511;SDS011;13414;44.534;18.700;2022-08-18T11:44:19;13.98;;;5.47;;
25511;SDS011;13414;44.534;18.700;2022-08-18T11:46:50;9.60;;;4.85;;
25511;SDS011;13414;44.534;18.700;2022-08-18T11:49:27;11.90;;;6.07;;
25511;SDS011;13414;44.534;18.700;2022-08-18T11:51:58;12.25;;;6.38;;
25511;SDS011;13414;44.534;18.700;2022-08-18T11:54:32;8.25;;;4.88;;
25511;SDS011;13414;44.534;18.700;2022-08-18T11:59:55;8.70;;;5.25;;
25511;SDS011;13414;44.534;18.700;2022-08-18T12:02:24;13.05;;;9.20;;
25511;SDS011;13414;44.534;18.700;2022-08-18T12:04:52;12.45;;;8.23;;
25511;SDS011;13414;44.534;18.700;2022-08-18T12:07:26;7.85;;;4.47;;
25511;SDS011;13414;44.534;18.700;2022-08-18T12:10:12;5.35;;;4.55;;
25511;SDS011;13414;44.534;18.700;2022-08-18T12:12:46;8.65;;;5.38;;
25511;SDS011;13414;44.534;18.700;2022-08-18T12:15:23;10.63;;;7.18;;
25511;SDS011;13414;44.534;18.700;2022-08-18T12:17:53;55.40;;;9.35;;
25511;SDS011;13414;44.534;18.700;2022-08-18T12:20:20;10.23;;;4.78;;
25511;SDS011;13414;44.534;18.700;2022-08-18T12:22:48;9.68;;;4.85;;
25511;SDS011;13414;44.534;18.700;2022-08-18T12:25:18;9.25;;;4.43;;
25511;SDS011;13414;44.534;18.700;2022-08-18T12:27:47;10.65;;;6.90;;
25511;SDS011;13414;44.534;18.700;2022-08-18T12:30:15;9.55;;;4.80;;
25511;SDS011;13414;44.534;18.700;2022-08-18T12:32:43;8.57;;;4.57;;
25511;SDS011;13414;44.534;18.700;2022-08-18T12:35:11;10.68;;;4.95;;
25511;SDS011;13414;44.534;18.700;2022-08-18T12:37:40;9.77;;;4.97;;
25511;SDS011;13414;44.534;18.700;2022-08-18T12:40:10;9.02;;;5.68;;
25511;SDS011;13414;44.534;18.700;2022-08-18T12:42:38;7.45;;;4.70;;
25511;SDS011;13414;44.534;18.700;2022-08-18T12:45:08;8.13;;;5.25;;
25511;SDS011;13414;44.534;18.700;2022-08-18T12:47:36;6.85;;;4.15;;
25511;SDS011;13414;44.534;18.700;2022-08-18T12:50:06;6.88;;;5.05;;
25511;SDS011;13414;44.534;18.700;2022-08-18T12:52:33;9.35;;;4.30;;
25511;SDS011;13414;44.534;18.700;2022-08-18T12:55:01;8.70;;;4.57;;
25511;SDS011;13414;44.534;18.700;2022-08-18T12:57:28;9.90;;;4.90;;
25511;SDS011;13414;44.534;18.700;2022-08-18T12:59:55;8.45;;;4.03;;
25511;SDS011;13414;44.534;18.700;2022-08-18T13:02:25;12.20;;;4.90;;
25511;SDS011;13414;44.534;18.700;2022-08-18T13:04:52;11.20;;;4.60;;
25511;SDS011;13414;44.534;18.700;2022-08-18T13:07:19;11.55;;;5.38;;
25511;SDS011;13414;44.534;18.700;2022-08-18T13:09:46;8.55;;;4.38;;
25511;SDS011;13414;44.534;18.700;2022-08-18T13:12:14;6.72;;;4.38;;
25511;SDS011;13414;44.534;18.700;2022-08-18T13:14:42;12.52;;;5.60;;
25511;SDS011;13414;44.534;18.700;2022-08-18T13:17:10;13.25;;;7.03;;
25511;SDS011;13414;44.534;18.700;2022-08-18T13:19:39;8.43;;;5.65;;
25511;SDS011;13414;44.534;18.700;2022-08-18T13:22:07;12.77;;;8.38;;
25511;SDS011;13414;44.534;18.700;2022-08-18T13:24:36;29.02;;;23.40;;
25511;SDS011;13414;44.534;18.700;2022-08-18T13:27:03;13.20;;;6.78;;
25511;SDS011;13414;44.534;18.700;2022-08-18T13:29:31;12.35;;;9.90;;
25511;SDS011;13414;44.534;18.700;2022-08-18T13:31:58;7.22;;;4.97;;
25511;SDS011;13414;44.534;18.700;2022-08-18T13:34:28;7.78;;;4.18;;
25511;SDS011;13414;44.534;18.700;2022-08-18T13:36:59;9.23;;;4.30;;
25511;SDS011;13414;44.534;18.700;2022-08-18T13:39:26;8.00;;;4.57;;
25511;SDS011;13414;44.534;18.700;2022-08-18T13:41:53;11.57;;;4.72;;
25511;SDS011;13414;44.534;18.700;2022-08-18T13:44:21;8.20;;;4.93;;
25511;SDS011;13414;44.534;18.700;2022-08-18T13:46:48;9.23;;;4.55;;
25511;SDS011;13414;44.534;18.700;2022-08-18T13:49:17;11.48;;;4.18;;
25511;SDS011;13414;44.534;18.700;2022-08-18T13:51:45;12.13;;;4.50;;
25511;SDS011;13414;44.534;18.700;2022-08-18T13:54:17;12.70;;;4.07;;
25511;SDS011;13414;44.534;18.700;2022-08-18T13:56:47;8.65;;;4.78;;
25511;SDS011;13414;44.534;18.700;2022-08-18T13:59:15;9.77;;;4.68;;
25511;SDS011;13414;44.534;18.700;2022-08-18T14:01:43;9.38;;;4.68;;
25511;SDS011;13414;44.534;18.700;2022-08-18T14:04:10;10.55;;;4.78;;
25511;SDS011;13414;44.534;18.700;2022-08-18T14:06:38;12.93;;;5.05;;
25511;SDS011;13414;44.534;18.700;2022-08-18T14:09:06;14.23;;;5.75;;
25511;SDS011;13414;44.534;18.700;2022-08-18T14:11:35;9.10;;;4.88;;
25511;SDS011;13414;44.534;18.700;2022-08-18T14:14:03;16.25;;;7.47;;
25511;SDS011;13414;44.534;18.700;2022-08-18T14:16:31;12.45;;;5.60;;
25511;SDS011;13414;44.534;18.700;2022-08-18T14:18:59;11.52;;;5.85;;
25511;SDS011;13414;44.534;18.700;2022-08-18T14:21:45;10.98;;;5.68;;
25511;SDS011;13414;44.534;18.700;2022-08-18T14:24:33;10.90;;;5.60;;
25511;SDS011;13414;44.534;18.700;2022-08-18T14:27:23;17.92;;;13.38;;
25511;SDS011;13414;44.534;18.700;2022-08-18T14:29:53;9.82;;;7.20;;
25511;SDS011;13414;44.534;18.700;2022-08-18T14:32:20;9.90;;;4.88;;
25511;SDS011;13414;44.534;18.700;2022-08-18T14:34:51;10.57;;;4.82;;
25511;SDS011;13414;44.534;18.700;2022-08-18T14:37:18;9.07;;;4.85;;
25511;SDS011;13414;44.534;18.700;2022-08-18T14:39:46;8.63;;;4.55;;
25511;SDS011;13414;44.534;18.700;2022-08-18T14:42:14;10.27;;;5.20;;
25511;SDS011;13414;44.534;18.700;2022-08-18T14:44:44;12.88;;;6.35;;
25511;SDS011;13414;44.534;18.700;2022-08-18T14:47:12;9.70;;;5.68;;
25511;SDS011;13414;44.534;18.700;2022-08-18T14:49:39;9.25;;;4.90;;
25511;SDS011;13414;44.534;18.700;2022-08-18T14:52:07;9.05;;;4.82;;
25511;SDS011;13414;44.534;18.700;2022-08-18T14:54:35;7.68;;;5.38;;
25511;SDS011;13414;44.534;18.700;2022-08-18T14:57:03;10.20;;;5.75;;
25511;SDS011;13414;44.534;18.700;2022-08-18T14:59:33;11.95;;;5.63;;
25511;SDS011;13414;44.534;18.700;2022-08-18T15:02:03;8.75;;;5.55;;
25511;SDS011;13414;44.534;18.700;2022-08-18T15:04:32;7.75;;;4.90;;
25511;SDS011;13414;44.534;18.700;2022-08-18T15:06:59;10.18;;;5.45;;
25511;SDS011;13414;44.534;18.700;2022-08-18T15:09:27;10.10;;;5.20;;
25511;SDS011;13414;44.534;18.700;2022-08-18T15:11:55;13.82;;;5.20;;
25511;SDS011;13414;44.534;18.700;2022-08-18T15:14:23;13.38;;;6.53;;
25511;SDS011;13414;44.534;18.700;2022-08-18T15:16:51;7.53;;;5.00;;
25511;SDS011;13414;44.534;18.700;2022-08-18T15:19:20;9.35;;;4.88;;
25511;SDS011;13414;44.534;18.700;2022-08-18T15:21:47;10.07;;;4.97;;
25511;SDS011;13414;44.534;18.700;2022-08-18T15:24:40;10.32;;;5.90;;
25511;SDS011;13414;44.534;18.700;2022-08-18T15:27:29;11.63;;;6.07;;